Time;durP1;ratioP1;P1;durP2;ratioP2;P2;SDS_P1;SDS_P2;PMS_P1;PMS_P2;Temp;Humidity;BMP_temperature;BMP_pressure;BME280_temperature;BME280_humidity;BME280_pressure;Samples;Min_cycle;Max_cycle;Signal;HPM_P1;HPM_P2
2023/09/11 00:00:47;;;;;;;10.00;7.30;;;;;;;15.33;84.75;100584.70;105249;1267;69079;-56
2023/09/11 00:03:34;;;;;;;9.20;7.60;;;;;;;15.30;85.11;100583.66;105246;1257;69181;-57
2023/09/11 00:06:03;;;;;;;8.50;7.40;;;;;;;15.28;85.06;100581.10;105261;1259;76416;-58
2023/09/11 00:08:32;;;;;;;9.90;7.60;;;;;;;15.27;85.11;100578.18;105294;1257;82853;-58
2023/09/11 00:10:59;;;;;;;8.30;7.30;;;;;;;15.24;85.16;100574.30;105219;1257;73958;-57
2023/09/11 00:13:28;;;;;;;10.90;8.40;;;;;;;15.21;85.28;100572.34;105281;1259;69193;-57
2023/09/11 00:15:55;;;;;;;10.00;7.80;;;;;;;15.23;85.79;100574.86;105301;1259;69109;-58
2023/09/11 00:18:23;;;;;;;10.40;7.70;;;;;;;15.26;85.87;100571.74;105258;1259;75921;-57
2023/09/11 00:20:50;;;;;;;8.60;7.30;;;;;;;15.25;85.56;100570.56;105250;1259;82425;-58
2023/09/11 00:23:17;;;;;;;9.80;7.40;;;;;;;15.18;85.27;100566.50;105208;1256;72746;-57
2023/09/11 00:25:44;;;;;;;10.70;7.40;;;;;;;15.15;85.44;100564.39;105250;1256;69200;-57
2023/09/11 00:28:12;;;;;;;8.90;7.70;;;;;;;15.13;85.60;100567.15;105210;1259;69209;-58
2023/09/11 00:30:39;;;;;;;8.80;7.70;;;;;;;15.10;85.49;100566.06;105187;1258;75528;-57
2023/09/11 00:33:06;;;;;;;11.90;7.60;;;;;;;15.06;85.60;100566.98;105254;1259;83204;-57
2023/09/11 00:35:34;;;;;;;11.20;8.20;;;;;;;15.03;85.72;100569.28;105150;1257;73539;-58
2023/09/11 00:38:01;;;;;;;9.60;7.70;;;;;;;15.00;85.86;100569.06;105281;1259;69203;-57
2023/09/11 00:40:27;;;;;;;8.70;7.80;;;;;;;14.97;85.84;100571.48;105202;1257;69719;-57
2023/09/11 00:42:54;;;;;;;8.50;7.60;;;;;;;14.94;85.89;100574.11;105288;1256;75808;-57
2023/09/11 00:45:21;;;;;;;10.20;7.90;;;;;;;14.92;85.98;100572.30;105221;1259;83697;-57
2023/09/11 00:47:49;;;;;;;9.90;8.20;;;;;;;14.93;86.53;100570.10;105144;1257;72663;-57
2023/09/11 00:50:19;;;;;;;9.60;7.40;;;;;;;14.95;86.54;100571.05;105297;1256;69206;-56
2023/09/11 00:52:47;;;;;;;8.80;7.70;;;;;;;14.93;86.52;100571.85;105144;1262;69120;-58
2023/09/11 00:55:14;;;;;;;9.00;8.10;;;;;;;14.92;86.49;100571.59;105123;1257;74586;-58
2023/09/11 00:57:42;;;;;;;9.40;7.50;;;;;;;14.87;86.39;100567.78;105172;1257;83656;-58
2023/09/11 01:00:10;;;;;;;8.90;7.90;;;;;;;14.85;86.48;100569.64;105322;1259;73488;-58
2023/09/11 01:02:36;;;;;;;8.90;7.60;;;;;;;14.82;86.35;100564.71;105247;1259;69217;-58
2023/09/11 01:05:07;;;;;;;9.40;7.90;;;;;;;14.80;86.54;100566.23;105381;1259;69197;-58
2023/09/11 01:07:34;;;;;;;;;;;;;;;14.77;86.53;100563.93;105236;1257;75751;-58
2023/09/11 01:10:06;;;;;;;9.00;7.50;;;;;;;14.77;86.84;100564.48;105125;1260;83094;-57
2023/09/11 01:12:35;;;;;;;10.90;7.70;;;;;;;14.73;86.81;100562.69;105231;1257;72564;-58
2023/09/11 01:15:04;;;;;;;9.80;8.40;;;;;;;14.71;86.79;100562.45;105267;1257;69128;-58
2023/09/11 01:17:37;;;;;;;11.70;8.50;;;;;;;14.71;87.10;100561.92;105235;1257;69062;-57
2023/09/11 01:20:30;;;;;;;9.80;8.10;;;;;;;14.71;87.28;100560.16;105262;1257;75666;-58
2023/09/11 01:23:19;;;;;;;14.40;8.40;;;;;;;14.70;87.29;100563.39;105265;1259;83236;-58
2023/09/11 01:26:06;;;;;;;8.90;8.00;;;;;;;14.70;87.40;100562.35;105194;1259;74045;-58
2023/09/11 01:28:42;;;;;;;10.10;8.90;;;;;;;14.69;87.57;100560.48;105128;1258;69283;-58
2023/09/11 01:31:09;;;;;;;13.50;9.10;;;;;;;14.69;87.62;100559.25;105286;1259;69126;-58
2023/09/11 01:33:36;;;;;;;10.20;8.10;;;;;;;14.69;87.66;100558.89;105269;1257;74675;-58
2023/09/11 01:36:03;;;;;;;11.20;9.00;;;;;;;14.68;87.68;100557.18;105293;1259;82496;-58
2023/09/11 01:38:31;;;;;;;11.00;9.00;;;;;;;14.66;87.76;100553.57;105237;1258;74092;-57
2023/09/11 01:40:59;;;;;;;11.80;9.10;;;;;;;14.66;87.86;100554.64;105191;1258;69115;-58
2023/09/11 01:43:31;;;;;;;11.40;9.00;;;;;;;14.66;87.95;100553.77;105275;1259;69250;-58
2023/09/11 01:45:59;;;;;;;10.40;9.30;;;;;;;14.63;87.76;100554.26;105206;1257;74538;-59
2023/09/11 01:48:29;;;;;;;11.40;9.30;;;;;;;14.62;88.10;100553.25;105206;1260;83616;-57
2023/09/11 01:50:57;;;;;;;11.30;8.70;;;;;;;14.64;88.35;100550.86;105177;1257;72530;-58
2023/09/11 01:53:26;;;;;;;10.30;9.10;;;;;;;14.62;87.97;100547.83;105268;1259;69056;-57
2023/09/11 01:55:53;;;;;;;11.90;8.10;;;;;;;14.60;88.12;100551.11;105224;1260;69205;-58
2023/09/11 01:58:20;;;;;;;10.50;8.90;;;;;;;14.58;88.11;100547.52;105215;1261;74746;-58
2023/09/11 02:00:47;;;;;;;11.40;8.60;;;;;;;14.57;88.13;100550.73;105129;1260;82515;-58
2023/09/11 02:03:16;;;;;;;9.20;8.20;;;;;;;14.55;88.09;100547.31;105187;1257;73519;-57
2023/09/11 02:05:43;;;;;;;9.80;8.10;;;;;;;14.50;88.27;100545.02;105222;1259;69334;-58
2023/09/11 02:08:10;;;;;;;15.00;9.10;;;;;;;14.49;88.32;100547.92;105208;1259;69504;-58
2023/09/11 02:10:37;;;;;;;8.90;7.50;;;;;;;14.46;88.37;100547.49;105227;1257;74684;-58
2023/09/11 02:13:04;;;;;;;12.40;8.50;;;;;;;14.45;88.58;100549.34;105258;1259;83231;-58
2023/09/11 02:15:31;;;;;;;9.90;8.40;;;;;;;14.45;88.63;100546.73;105237;1257;74040;-58
2023/09/11 02:17:58;;;;;;;9.70;8.10;;;;;;;14.43;88.53;100553.31;105274;1259;69139;-58
2023/09/11 02:20:26;;;;;;;9.90;7.80;;;;;;;14.42;88.74;100550.52;105213;1259;69080;-57
2023/09/11 02:22:53;;;;;;;11.30;8.40;;;;;;;14.41;88.73;100549.04;105196;1259;75816;-58
2023/09/11 02:25:20;;;;;;;7.90;7.00;;;;;;;14.41;88.87;100548.15;105235;1257;83390;-58
2023/09/11 02:27:46;;;;;;;8.60;7.30;;;;;;;14.41;89.05;100546.91;105180;1259;73538;-58
2023/09/11 02:30:13;;;;;;;9.90;7.60;;;;;;;14.40;89.00;100547.11;105151;1259;69240;-57
2023/09/11 02:32:40;;;;;;;8.80;7.70;;;;;;;14.39;89.04;100544.89;105347;1258;69286;-58
2023/09/11 02:35:07;;;;;;;7.90;7.10;;;;;;;14.37;89.13;100546.25;105166;1259;74631;-57
2023/09/11 02:37:34;;;;;;;7.80;6.90;;;;;;;14.34;89.06;100547.64;105298;1263;83311;-58
2023/09/11 02:40:03;;;;;;;7.30;6.60;;;;;;;14.34;89.38;100545.87;105228;1259;73767;-58
2023/09/11 02:42:30;;;;;;;8.90;6.90;;;;;;;14.34;89.41;100548.83;105224;1259;69203;-58
2023/09/11 02:44:57;;;;;;;8.60;7.20;;;;;;;14.34;89.32;100547.48;105285;1261;69802;-57
2023/09/11 02:47:24;;;;;;;9.10;6.90;;;;;;;14.32;89.22;100548.27;105151;1262;74591;-58
2023/09/11 02:49:51;;;;;;;8.00;7.20;;;;;;;14.29;89.00;100547.00;105186;1259;83215;-58
2023/09/11 02:52:18;;;;;;;9.10;7.10;;;;;;;14.27;89.22;100548.84;105213;1259;72684;-58
2023/09/11 02:54:44;;;;;;;8.10;7.10;;;;;;;14.25;89.37;100549.81;105119;1257;69247;-58
2023/09/11 02:57:12;;;;;;;11.30;7.00;;;;;;;14.22;89.13;100551.55;105207;1259;69194;-58
2023/09/11 02:59:38;;;;;;;9.70;6.70;;;;;;;14.19;89.24;100552.76;105167;1259;75855;-58
2023/09/11 03:02:06;;;;;;;8.00;7.10;;;;;;;14.17;89.15;100553.23;105188;1257;83975;-58
2023/09/11 03:04:33;;;;;;;9.20;7.00;;;;;;;14.16;89.35;100553.45;105111;1257;73864;-58
2023/09/11 03:06:59;;;;;;;9.10;7.20;;;;;;;14.13;89.31;100552.17;105119;1262;69176;-58
2023/09/11 03:09:27;;;;;;;8.70;7.80;;;;;;;14.10;89.26;100550.05;105318;1257;69189;-58
2023/09/11 03:11:55;;;;;;;9.20;8.10;;;;;;;14.10;89.68;100552.36;105240;1258;75446;-58
2023/09/11 03:14:22;;;;;;;9.40;7.40;;;;;;;14.12;89.86;100548.55;105164;1263;82485;-58
2023/09/11 03:16:50;;;;;;;8.80;7.50;;;;;;;14.11;89.54;100546.51;105214;1260;72376;-58
2023/09/11 03:19:17;;;;;;;9.80;8.20;;;;;;;14.08;89.49;100546.30;105247;1259;69115;-58
2023/09/11 03:21:43;;;;;;;9.10;7.90;;;;;;;14.06;89.63;100542.88;105296;1260;69122;-58
2023/09/11 03:24:10;;;;;;;9.20;7.60;;;;;;;14.02;89.66;100538.99;105195;1257;75841;-58
2023/09/11 03:26:38;;;;;;;10.30;8.20;;;;;;;14.00;89.71;100536.11;105231;1258;82482;-58
2023/09/11 03:29:05;;;;;;;10.00;7.70;;;;;;;13.99;89.73;100535.64;105215;1257;74045;-57
2023/09/11 03:31:32;;;;;;;9.70;8.10;;;;;;;13.97;89.77;100534.90;105178;1260;69149;-58
2023/09/11 03:33:59;;;;;;;9.30;8.30;;;;;;;13.94;89.79;100537.30;105230;1261;69118;-58
2023/09/11 03:36:26;;;;;;;9.40;8.10;;;;;;;13.92;89.68;100537.59;105116;1263;75583;-58
2023/09/11 03:38:53;;;;;;;8.60;7.60;;;;;;;13.87;89.66;100535.19;105220;1257;82765;-58
2023/09/11 03:41:21;;;;;;;8.90;7.80;;;;;;;13.83;89.67;100535.34;105248;1257;72682;-58
2023/09/11 03:43:48;;;;;;;8.80;7.60;;;;;;;13.80;89.77;100532.38;105177;1259;69177;-58
2023/09/11 03:46:15;;;;;;;9.00;8.10;;;;;;;13.79;89.96;100534.34;105197;1259;69184;-58
2023/09/11 03:48:43;;;;;;;9.20;7.50;;;;;;;13.77;90.06;100530.23;105306;1259;75614;-58
2023/09/11 03:51:13;;;;;;;11.00;8.30;;;;;;;13.76;90.15;100530.94;105261;1256;82599;-58
2023/09/11 03:53:45;;;;;;;9.90;7.60;;;;;;;13.74;89.97;100531.23;105240;1260;73707;-58
2023/09/11 03:56:15;;;;;;;8.80;7.40;;;;;;;13.71;90.09;100531.73;105210;1259;70589;-58
2023/09/11 03:58:46;;;;;;;10.90;7.80;;;;;;;13.69;90.12;100530.77;105267;1260;69141;-58
2023/09/11 04:01:13;;;;;;;10.80;7.90;;;;;;;13.68;90.07;100531.20;105154;1260;75624;-58
2023/09/11 04:03:42;;;;;;;11.70;7.80;;;;;;;13.66;90.10;100529.19;105324;1260;82988;-58
2023/09/11 04:06:09;;;;;;;8.10;7.30;;;;;;;13.65;90.37;100529.92;105199;1257;72850;-58
2023/09/11 04:08:36;;;;;;;10.50;7.90;;;;;;;13.64;90.30;100532.08;105377;1259;70396;-58
2023/09/11 04:11:03;;;;;;;9.70;8.30;;;;;;;13.63;90.44;100529.66;105262;1258;69199;-58
2023/09/11 04:13:30;;;;;;;11.50;8.10;;;;;;;13.62;90.45;100527.27;105260;1260;75528;-58
2023/09/11 04:15:57;;;;;;;8.90;7.60;;;;;;;13.60;90.53;100525.23;105248;1260;83525;-58
2023/09/11 04:18:24;;;;;;;8.40;7.60;;;;;;;13.57;90.49;100522.54;105165;1261;73674;-58
2023/09/11 04:20:59;;;;;;;10.10;8.00;;;;;;;13.54;90.41;100523.38;105205;1258;69082;-57
2023/09/11 04:23:27;;;;;;;8.00;7.00;;;;;;;13.53;90.53;100522.41;105225;1257;69185;-57
2023/09/11 04:25:55;;;;;;;8.30;7.50;;;;;;;13.51;90.51;100519.52;105163;1260;75654;-57
2023/09/11 04:28:22;;;;;;;8.60;7.70;;;;;;;13.50;90.36;100520.48;105159;1262;83241;-58
2023/09/11 04:30:49;;;;;;;8.40;7.50;;;;;;;13.49;90.46;100518.23;105231;1258;73941;-58
2023/09/11 04:33:18;;;;;;;9.70;8.70;;;;;;;13.49;90.59;100523.48;105233;1259;69196;-58
2023/09/11 04:35:45;;;;;;;10.00;7.90;;;;;;;13.50;90.75;100519.40;105242;1259;69167;-57
2023/09/11 04:38:12;;;;;;;8.60;7.70;;;;;;;13.51;90.88;100518.63;105116;1262;75636;-58
2023/09/11 04:40:39;;;;;;;10.00;8.40;;;;;;;13.52;90.97;100521.39;105275;1269;82110;-57
2023/09/11 04:43:07;;;;;;;9.30;8.10;;;;;;;13.52;91.15;100520.70;105214;1257;72718;-58
2023/09/11 04:45:34;;;;;;;9.70;8.00;;;;;;;13.53;91.31;100516.97;105299;1258;69175;-58
2023/09/11 04:48:03;;;;;;;9.60;8.60;;;;;;;13.55;91.30;100514.23;105243;1260;69310;-59
2023/09/11 04:50:30;;;;;;;11.10;8.70;;;;;;;13.57;91.31;100516.59;105273;1259;74778;-58
2023/09/11 04:52:58;;;;;;;11.50;8.90;;;;;;;13.58;91.35;100515.30;105242;1259;82827;-57
2023/09/11 04:55:24;;;;;;;11.60;8.70;;;;;;;13.60;91.81;100513.99;105125;1261;72707;-58
2023/09/11 04:57:51;;;;;;;10.30;8.50;;;;;;;13.63;91.74;100512.64;105166;1260;69137;-58
2023/09/11 05:00:18;;;;;;;10.00;9.00;;;;;;;13.65;92.04;100512.02;105212;1260;69133;-58
2023/09/11 05:02:46;;;;;;;11.70;8.50;;;;;;;13.67;91.97;100514.05;105240;1258;75580;-57
2023/09/11 05:05:14;;;;;;;9.40;8.40;;;;;;;13.68;92.08;100514.30;105184;1260;83248;-58
2023/09/11 05:07:44;;;;;;;12.20;8.60;;;;;;;13.71;92.01;100512.95;105233;1260;73617;-57
2023/09/11 05:10:14;;;;;;;9.80;8.50;;;;;;;13.75;92.35;100516.30;105323;1257;69211;-58
2023/09/11 05:12:41;;;;;;;10.90;8.50;;;;;;;13.79;92.49;100514.30;105305;1258;69201;-57
2023/09/11 05:15:10;;;;;;;12.00;9.10;;;;;;;13.83;92.55;100514.27;105335;1259;74520;-58
2023/09/11 05:17:37;;;;;;;13.90;10.30;;;;;;;13.88;92.67;100511.08;105234;1259;83449;-58
2023/09/11 05:20:06;;;;;;;11.30;10.10;;;;;;;13.94;93.10;100509.19;105212;1257;73809;-58
2023/09/11 05:22:33;;;;;;;11.00;9.80;;;;;;;14.00;93.24;100510.13;105175;1258;69182;-58
2023/09/11 05:25:00;;;;;;;12.60;10.60;;;;;;;14.06;93.36;100511.39;105269;1257;69193;-58
2023/09/11 05:27:28;;;;;;;11.30;10.10;;;;;;;14.11;93.42;100509.08;105305;1260;75688;-58
2023/09/11 05:29:55;;;;;;;15.20;10.20;;;;;;;14.16;93.55;100511.08;105287;1263;83179;-59
2023/09/11 05:32:23;;;;;;;12.30;9.60;;;;;;;14.23;93.78;100510.23;105280;1257;72534;-58
2023/09/11 05:34:50;;;;;;;13.60;10.80;;;;;;;14.29;94.02;100507.44;105306;1260;69199;-58
2023/09/11 05:37:17;;;;;;;12.60;10.60;;;;;;;14.36;94.11;100509.90;105321;1262;69199;-58
2023/09/11 05:39:46;;;;;;;12.80;10.40;;;;;;;14.44;94.37;100508.95;105325;1260;75483;-58
2023/09/11 05:42:13;;;;;;;15.90;11.40;;;;;;;14.52;94.55;100509.62;105211;1260;83670;-58
2023/09/11 05:44:40;;;;;;;14.10;12.00;;;;;;;14.60;94.71;100509.75;105273;1257;72640;-58
2023/09/11 05:47:08;;;;;;;14.20;12.10;;;;;;;14.70;95.06;100510.64;105278;1259;69165;-58
2023/09/11 05:49:35;;;;;;;13.10;11.50;;;;;;;14.81;95.54;100508.47;105268;1258;69196;-58
2023/09/11 05:52:03;;;;;;;16.40;12.70;;;;;;;14.94;95.62;100508.47;105288;1257;75829;-59
2023/09/11 05:54:30;;;;;;;19.40;13.10;;;;;;;15.06;95.83;100509.27;105287;1259;83241;-57
2023/09/11 05:56:57;;;;;;;53.90;16.80;;;;;;;15.16;95.88;100507.63;105237;1256;72748;-58
2023/09/11 05:59:24;;;;;;;49.20;17.40;;;;;;;15.28;95.94;100508.95;105325;1259;69102;-58
2023/09/11 06:01:51;;;;;;;53.00;17.30;;;;;;;15.38;96.08;100508.55;105322;1260;70504;-58
2023/09/11 06:04:18;;;;;;;36.10;15.80;;;;;;;15.50;96.11;100510.54;105347;1261;75795;-58
2023/09/11 06:06:45;;;;;;;26.60;14.10;;;;;;;15.60;96.27;100512.43;105247;1261;83776;-58
2023/09/11 06:09:12;;;;;;;15.10;13.20;;;;;;;15.72;96.28;100513.40;105282;1261;73700;-58
2023/09/11 06:11:39;;;;;;;16.30;12.60;;;;;;;15.83;96.21;100515.06;105283;1257;69284;-58
2023/09/11 06:14:07;;;;;;;18.90;12.40;;;;;;;15.94;96.28;100513.93;105310;1260;69229;-59
2023/09/11 06:16:34;;;;;;;19.80;12.80;;;;;;;16.05;96.41;100514.48;105257;1260;75507;-58
2023/09/11 06:19:01;;;;;;;14.50;12.10;;;;;;;16.16;96.26;100514.21;105248;1260;83744;-58
2023/09/11 06:21:28;;;;;;;14.60;12.40;;;;;;;16.26;96.25;100510.96;105300;1259;73666;-58
2023/09/11 06:23:55;;;;;;;14.10;12.60;;;;;;;16.38;96.48;100511.02;105237;1260;69225;-58
2023/09/11 06:26:22;;;;;;;14.40;12.60;;;;;;;16.48;96.44;100505.80;105127;1260;69189;-59
2023/09/11 06:28:50;;;;;;;13.20;11.80;;;;;;;16.59;96.40;100506.92;105276;1258;75493;-58
2023/09/11 06:31:18;;;;;;;13.40;11.70;;;;;;;16.69;96.46;100502.92;105294;1259;83306;-58
2023/09/11 06:33:45;;;;;;;13.80;12.00;;;;;;;16.81;96.66;100503.48;105214;1266;73980;-57
2023/09/11 06:36:13;;;;;;;16.80;11.70;;;;;;;16.92;96.60;100501.00;105249;1260;69310;-59
2023/09/11 06:38:40;;;;;;;13.60;12.20;;;;;;;17.05;96.66;100501.83;105255;1259;69239;-58
2023/09/11 06:41:08;;;;;;;14.70;11.30;;;;;;;17.16;96.46;100499.91;105249;1257;75688;-58
2023/09/11 06:43:36;;;;;;;12.40;10.70;;;;;;;17.25;96.38;100501.27;105249;1259;83366;-58
2023/09/11 06:46:03;;;;;;;13.00;11.60;;;;;;;17.36;96.54;100499.70;105261;1258;72596;-59
2023/09/11 06:48:33;;;;;;;14.40;12.00;;;;;;;17.49;96.41;100502.93;105257;1259;69205;-58
2023/09/11 06:51:00;;;;;;;14.80;11.10;;;;;;;17.60;96.44;100500.95;105263;1257;69249;-58
2023/09/11 06:53:27;;;;;;;11.80;10.60;;;;;;;17.72;96.51;100498.92;105280;1257;75588;-58
2023/09/11 06:55:55;;;;;;;12.30;10.80;;;;;;;17.84;96.49;100502.26;105222;1260;83403;-58
2023/09/11 06:58:22;;;;;;;12.60;11.30;;;;;;;17.95;96.46;100504.20;105259;1257;73571;-59
2023/09/11 07:00:49;;;;;;;11.40;10.30;;;;;;;18.06;96.36;100508.44;105197;1257;69761;-58
2023/09/11 07:03:19;;;;;;;10.90;9.80;;;;;;;18.16;96.39;100505.98;105224;1260;69184;-58
2023/09/11 07:05:50;;;;;;;;;;;;;;;18.29;96.37;100504.41;105240;1259;74642;-58
2023/09/11 07:08:18;;;;;;;11.00;9.80;;;;;;;18.41;96.41;100508.33;105325;1261;83287;-57
2023/09/11 07:10:51;;;;;;;13.40;10.90;;;;;;;18.52;96.14;100506.73;105258;1261;72589;-56
2023/09/11 07:13:18;;;;;;;11.60;9.80;;;;;;;18.63;96.05;100509.30;105310;1260;69160;-56
2023/09/11 07:15:56;;;;;;;14.30;10.50;;;;;;;18.74;95.87;100508.23;105246;1259;69249;-56
2023/09/11 07:18:23;;;;;;;12.50;9.60;;;;;;;18.86;95.77;100506.73;105244;1261;74548;-57
2023/09/11 07:20:51;;;;;;;11.40;9.90;;;;;;;18.97;95.60;100508.42;105246;1259;82441;-56
2023/09/11 07:23:25;;;;;;;11.90;10.50;;;;;;;19.08;95.42;100510.11;105350;1258;72717;-56
2023/09/11 07:25:52;;;;;;;10.50;9.30;;;;;;;19.18;95.16;100511.92;105293;1259;69313;-57
2023/09/11 07:28:19;;;;;;;12.60;9.50;;;;;;;19.29;95.15;100511.61;105323;1260;69130;-57
2023/09/11 07:30:45;;;;;;;10.70;9.50;;;;;;;19.42;95.03;100510.17;105249;1260;75002;-57
2023/09/11 07:33:12;;;;;;;11.30;10.10;;;;;;;19.54;94.85;100509.64;105266;1260;82722;-57
2023/09/11 07:35:40;;;;;;;11.10;9.50;;;;;;;19.66;94.68;100510.02;105248;1261;73907;-57
2023/09/11 07:38:07;;;;;;;9.90;8.90;;;;;;;19.78;94.53;100510.02;105261;1258;69301;-58
2023/09/11 07:40:34;;;;;;;10.50;9.10;;;;;;;19.92;94.31;100512.24;105311;1259;69194;-58
2023/09/11 07:43:00;;;;;;;14.60;9.80;;;;;;;20.04;94.19;100512.35;105249;1260;75407;-58
2023/09/11 07:45:27;;;;;;;12.10;9.80;;;;;;;20.18;93.99;100513.33;105264;1259;83254;-57
2023/09/11 07:47:54;;;;;;;9.80;8.80;;;;;;;20.32;93.67;100511.18;105215;1258;73860;-57
2023/09/11 07:50:22;;;;;;;11.80;9.80;;;;;;;20.44;93.46;100508.98;105238;1257;69186;-58
2023/09/11 07:52:50;;;;;;;11.80;10.40;;;;;;;20.58;93.20;100510.27;105271;1263;69130;-57
2023/09/11 07:55:17;;;;;;;11.40;9.70;;;;;;;20.73;93.00;100510.52;105275;1259;74620;-58
2023/09/11 07:57:46;;;;;;;12.50;9.40;;;;;;;20.88;92.79;100504.73;105154;1257;203051;-58
2023/09/11 08:00:14;;;;;;;12.20;9.80;;;;;;;21.05;92.35;100504.65;105254;1261;73723;-58
2023/09/11 08:02:41;;;;;;;11.30;9.50;;;;;;;21.20;92.00;100501.52;105275;1261;69198;-58
2023/09/11 08:05:08;;;;;;;10.00;9.00;;;;;;;21.37;91.63;100507.09;105284;1257;69878;-58
2023/09/11 08:07:35;;;;;;;11.50;9.50;;;;;;;21.54;91.12;100505.02;105256;1257;74565;-58
2023/09/11 08:10:03;;;;;;;11.30;9.90;;;;;;;21.72;90.53;100505.17;105292;1259;83555;-58
2023/09/11 08:12:32;;;;;;;11.50;9.50;;;;;;;21.88;89.89;100503.66;105264;1261;73109;-58
2023/09/11 08:14:59;;;;;;;11.50;9.40;;;;;;;22.07;89.57;100507.06;105284;1259;69126;-57
2023/09/11 08:17:29;;;;;;;12.10;9.40;;;;;;;22.24;88.97;100504.42;105334;1260;69231;-57
2023/09/11 08:19:57;;;;;;;11.20;9.50;;;;;;;22.40;88.47;100503.37;105279;1257;75977;-58
2023/09/11 08:22:24;;;;;;;10.70;9.30;;;;;;;22.57;87.89;100501.42;105250;1258;83627;-58
2023/09/11 08:24:51;;;;;;;12.60;9.20;;;;;;;22.75;87.53;100501.85;105231;1258;72759;-58
2023/09/11 08:27:18;;;;;;;10.20;9.10;;;;;;;22.92;87.21;100501.45;105259;1260;69190;-58
2023/09/11 08:29:45;;;;;;;10.10;9.10;;;;;;;23.09;86.77;100504.73;105331;1259;69135;-58
2023/09/11 08:32:12;;;;;;;10.40;9.20;;;;;;;23.26;86.15;100505.56;105298;1261;75869;-58
2023/09/11 08:34:39;;;;;;;9.70;8.80;;;;;;;23.44;85.64;100505.09;105272;1258;82462;-58
2023/09/11 08:37:06;;;;;;;10.80;9.10;;;;;;;23.61;85.14;100506.93;105262;1257;72645;-58
2023/09/11 08:39:33;;;;;;;9.50;8.60;;;;;;;23.78;84.94;100507.70;105350;1258;69834;-58
2023/09/11 08:42:00;;;;;;;10.30;9.20;;;;;;;23.96;84.19;100509.45;105271;1259;69193;-58
2023/09/11 08:44:27;;;;;;;11.30;9.10;;;;;;;24.10;83.43;100512.80;105379;1258;74590;-58
2023/09/11 08:46:58;;;;;;;11.00;9.40;;;;;;;24.24;82.54;100516.33;105295;1259;83364;-58
2023/09/11 08:49:32;;;;;;;12.50;10.30;;;;;;;24.39;82.02;100513.89;105272;1258;72596;-58
2023/09/11 08:52:02;;;;;;;13.00;10.40;;;;;;;24.54;81.28;100513.10;105300;1256;69077;-59
2023/09/11 08:54:34;;;;;;;11.10;10.10;;;;;;;24.66;80.82;100510.46;105305;1257;69199;-58
2023/09/11 08:57:02;;;;;;;13.50;10.10;;;;;;;24.81;80.32;100509.41;105122;1260;74488;-58
2023/09/11 08:59:33;;;;;;;12.30;9.40;;;;;;;24.97;79.71;100508.11;105316;1257;83664;-58
2023/09/11 09:02:01;;;;;;;12.20;9.50;;;;;;;25.11;79.03;100503.16;105264;1257;73648;-59
2023/09/11 09:04:29;;;;;;;10.60;9.30;;;;;;;25.27;78.26;100503.80;105134;1260;69106;-58
2023/09/11 09:06:56;;;;;;;10.40;9.10;;;;;;;25.44;77.73;100505.88;105174;1260;69320;-58
2023/09/11 09:09:24;;;;;;;10.70;9.50;;;;;;;25.61;77.02;100502.98;105343;1258;75628;-58
2023/09/11 09:11:51;;;;;;;9.80;8.70;;;;;;;25.75;76.12;100501.41;105329;1258;82578;-58
2023/09/11 09:14:19;;;;;;;9.60;8.70;;;;;;;25.88;74.84;100505.52;105257;1256;73890;-58
2023/09/11 09:16:46;;;;;;;10.70;9.30;;;;;;;25.98;73.94;100501.05;105298;1256;69185;-58
2023/09/11 09:19:13;;;;;;;10.70;8.50;;;;;;;26.09;73.55;100499.13;105248;1257;69119;-58
2023/09/11 09:22:05;;;;;;;10.70;8.60;;;;;;;26.19;72.70;100501.16;105303;1257;75625;-58
2023/09/11 09:24:33;;;;;;;9.30;8.00;;;;;;;26.25;71.68;100496.52;105367;1259;83252;-58
2023/09/11 09:27:02;;;;;;;11.20;8.80;;;;;;;26.43;71.67;100495.41;105287;1259;73716;-58
2023/09/11 09:29:36;;;;;;;9.30;8.20;;;;;;;26.62;70.62;100496.36;105317;1259;69206;-58
2023/09/11 09:32:05;;;;;;;10.10;7.70;;;;;;;26.74;69.75;100492.67;105314;1257;69183;-59
2023/09/11 09:34:33;;;;;;;9.10;8.20;;;;;;;26.89;69.21;100487.27;105328;1257;75583;-58
2023/09/11 09:37:01;;;;;;;8.30;7.30;;;;;;;27.12;68.38;100488.35;105319;1257;82570;-58
2023/09/11 09:39:29;;;;;;;8.60;7.80;;;;;;;27.35;68.08;100483.79;105321;1259;73715;-58
2023/09/11 09:42:02;;;;;;;12.00;7.90;;;;;;;27.58;67.29;100481.85;105384;1259;69130;-58
2023/09/11 09:44:33;;;;;;;8.90;7.60;;;;;;;27.77;66.66;100474.92;105335;1259;69181;-58
2023/09/11 09:47:12;;;;;;;10.60;7.90;;;;;;;28.01;66.20;100475.94;105399;1257;75897;-58
2023/09/11 09:49:52;;;;;;;8.90;7.40;;;;;;;28.31;65.43;100469.89;105317;1259;83552;-58
2023/09/11 09:52:22;;;;;;;9.90;8.10;;;;;;;28.56;63.96;100468.09;105317;1257;73633;-58
2023/09/11 09:54:52;;;;;;;8.10;7.40;;;;;;;28.65;62.82;100462.66;105304;1256;69096;-58
2023/09/11 09:57:21;;;;;;;9.20;7.50;;;;;;;28.77;61.94;100461.26;105327;1259;69727;-58
2023/09/11 09:59:53;;;;;;;7.90;7.10;;;;;;;28.89;61.43;100447.45;105352;1259;74770;-58
2023/09/11 10:02:32;;;;;;;8.20;7.40;;;;;;;29.07;60.77;100445.71;105326;1258;83545;-58
2023/09/11 10:05:08;;;;;;;8.30;7.00;;;;;;;29.20;60.08;100448.00;105288;1259;73862;-58
2023/09/11 10:07:43;;;;;;;10.30;7.20;;;;;;;29.32;59.69;100446.69;105316;1257;69276;-58
2023/09/11 10:10:25;;;;;;;9.60;7.00;;;;;;;29.55;59.07;100449.02;105299;1260;69110;-58
2023/09/11 10:13:13;;;;;;;9.80;6.90;;;;;;;29.73;58.02;100442.64;105327;1259;75783;-58
2023/09/11 10:15:42;;;;;;;7.40;6.70;;;;;;;29.95;56.95;100440.02;105415;1256;83462;-58
2023/09/11 10:18:11;;;;;;;7.50;6.60;;;;;;;30.14;56.47;100438.70;105307;1257;72711;-58
2023/09/11 10:20:39;;;;;;;7.20;6.30;;;;;;;30.29;55.54;100435.14;105323;1259;69199;-58
2023/09/11 10:23:08;;;;;;;7.40;6.70;;;;;;;30.52;54.71;100431.61;105299;1259;69273;-58
2023/09/11 10:25:45;;;;;;;6.90;6.20;;;;;;;30.78;53.91;100424.41;105357;1257;75644;-59
2023/09/11 10:28:34;;;;;;;9.00;6.30;;;;;;;31.00;53.98;100422.20;105319;1256;83963;-59
2023/09/11 10:31:25;;;;;;;7.00;6.30;;;;;;;30.98;53.05;100423.44;105335;1257;72697;-58
2023/09/11 10:33:58;;;;;;;7.60;6.60;;;;;;;30.71;52.16;100420.04;105288;1257;69246;-58
2023/09/11 10:36:37;;;;;;;7.10;6.40;;;;;;;30.37;52.15;100417.67;105148;1257;69208;-58
2023/09/11 10:39:06;;;;;;;7.40;6.60;;;;;;;30.09;52.09;100417.46;105340;1259;74861;-58
2023/09/11 10:41:33;;;;;;;;;;;;;;;29.82;52.42;100416.45;105351;1257;82481;-58
2023/09/11 10:44:00;;;;;;;6.90;6.10;;;;;;;29.73;52.55;100411.64;105106;1260;73072;-58
2023/09/11 10:46:32;;;;;;;7.30;6.50;;;;;;;29.93;52.68;100409.64;105318;1256;69198;-58
2023/09/11 10:49:00;;;;;;;7.60;6.40;;;;;;;30.31;53.11;100406.89;105323;1256;69087;-58
2023/09/11 10:51:30;;;;;;;7.90;6.20;;;;;;;30.56;52.94;100403.05;105345;1257;74422;-58
2023/09/11 10:53:58;;;;;;;6.60;5.90;;;;;;;30.36;52.32;100403.98;105286;1259;82490;-58
2023/09/11 10:56:25;;;;;;;7.30;6.40;;;;;;;30.05;51.34;100406.77;105384;1259;73601;-58
2023/09/11 10:58:53;;;;;;;9.40;6.50;;;;;;;29.83;51.29;100407.77;105275;1257;69206;-58
2023/09/11 11:01:20;;;;;;;7.00;6.30;;;;;;;29.60;52.05;100401.45;105320;1259;70661;-58
2023/09/11 11:03:52;;;;;;;6.70;6.00;;;;;;;29.67;52.29;100399.85;105338;1257;75832;-58
2023/09/11 11:06:23;;;;;;;6.50;5.90;;;;;;;30.10;52.46;100393.67;105272;1259;83671;-59
2023/09/11 11:08:50;;;;;;;7.90;6.20;;;;;;;30.57;51.51;100396.36;105306;1259;73655;-58
2023/09/11 11:11:21;;;;;;;6.60;5.80;;;;;;;30.94;49.80;100395.20;105252;1257;69182;-58
2023/09/11 11:14:22;;;;;;;9.20;5.40;;;;;;;31.39;48.23;100394.76;105299;1257;69173;-58
2023/09/11 11:17:00;;;;;;;5.90;5.20;;;;;;;31.89;46.72;100395.86;105282;1256;75876;-58
2023/09/11 11:19:32;;;;;;;8.40;5.70;;;;;;;32.35;45.76;100394.08;105302;1258;83221;-59